Time;durP1;ratioP1;P1;durP2;ratioP2;P2;SDS_P1;SDS_P2;PMS_P1;PMS_P2;Temp;Humidity;BMP_temperature;BMP_pressure;BME280_temperature;BME280_humidity;BME280_pressure;Samples;Min_cycle;Max_cycle;Signal;HPM_P1;HPM_P2
2024/01/09 00:00:41;;;;;;;88.85;62.53;;;;;;;;;;5082913;28;20021;-66
2024/01/09 00:03:07;;;;;;;66.82;51.50;;;;;;;;;;5083779;28;20027;-63
2024/01/09 00:05:32;;;;;;;68.25;52.85;;;;;;;;;;5082449;28;20419;-66
2024/01/09 00:07:58;;;;;;;54.15;41.28;;;;;;;;;;5078726;28;20039;-65
2024/01/09 00:10:23;;;;;;;37.13;33.13;;;;;;;;;;5090976;28;20079;-65
2024/01/09 00:12:48;;;;;;;33.53;29.63;;;;;;;;;;5087806;28;20019;-66
2024/01/09 00:15:14;;;;;;;31.50;28.48;;;;;;;;;;5072157;28;20114;-67
2024/01/09 00:17:40;;;;;;;28.27;25.58;;;;;;;;;;5081993;28;20238;-66
2024/01/09 00:20:06;;;;;;;27.67;25.02;;;;;;;;;;5084671;28;20025;-67
2024/01/09 00:22:31;;;;;;;29.42;26.60;;;;;;;;;;5081061;28;20092;-65
2024/01/09 00:24:57;;;;;;;29.38;26.58;;;;;;;;;;5085011;28;20042;-65
2024/01/09 00:27:22;;;;;;;26.20;23.65;;;;;;;;;;5097461;28;20092;-68
2024/01/09 00:29:47;;;;;;;27.90;25.27;;;;;;;;;;5094758;28;20122;-66
2024/01/09 00:32:12;;;;;;;27.02;24.42;;;;;;;;;;5090306;28;20070;-68
2024/01/09 00:34:38;;;;;;;27.35;24.75;;;;;;;;;;5088290;28;20031;-66
2024/01/09 00:37:03;;;;;;;25.75;23.25;;;;;;;;;;5097220;28;20038;-67
2024/01/09 00:39:28;;;;;;;37.00;33.35;;;;;;;;;;5099713;28;20435;-65
2024/01/09 00:41:54;;;;;;;38.67;34.88;;;;;;;;;;5097707;28;20357;-64
2024/01/09 00:44:19;;;;;;;35.50;31.90;;;;;;;;;;5094912;28;20042;-66
2024/01/09 00:46:45;;;;;;;34.58;31.17;;;;;;;;;;5084491;28;20028;-64
2024/01/09 00:49:10;;;;;;;32.85;29.52;;;;;;;;;;5096078;28;20032;-65
2024/01/09 00:51:35;;;;;;;29.95;27.02;;;;;;;;;;5094678;28;20084;-65
2024/01/09 00:54:01;;;;;;;27.10;24.48;;;;;;;;;;5080775;28;20020;-66
2024/01/09 00:56:26;;;;;;;26.17;23.67;;;;;;;;;;5079439;28;20042;-66
2024/01/09 00:58:52;;;;;;;26.85;24.25;;;;;;;;;;5096880;28;20032;-64
2024/01/09 01:01:17;;;;;;;25.50;23.00;;;;;;;;;;5098224;28;20159;-64
2024/01/09 01:03:42;;;;;;;23.73;21.42;;;;;;;;;;5081426;28;20055;-65
2024/01/09 01:06:08;;;;;;;23.10;21.00;;;;;;;;;;5077838;28;20292;-65
2024/01/09 01:08:34;;;;;;;25.52;23.02;;;;;;;;;;5097251;28;20055;-63
2024/01/09 01:11:00;;;;;;;23.45;21.25;;;;;;;;;;5098109;28;20047;-63
2024/01/09 01:13:25;;;;;;;36.45;32.65;;;;;;;;;;5098321;28;20080;-63
2024/01/09 01:15:50;;;;;;;24.92;22.42;;;;;;;;;;5097696;28;20035;-65
2024/01/09 01:18:16;;;;;;;27.80;25.00;;;;;;;;;;5064806;28;20033;-66
2024/01/09 01:20:41;;;;;;;25.02;22.52;;;;;;;;;;5094856;28;20123;-66
2024/01/09 01:23:06;;;;;;;37.42;29.65;;;;;;;;;;5098479;28;20059;-66
2024/01/09 01:25:32;;;;;;;27.45;23.63;;;;;;;;;;5097764;28;20027;-66
2024/01/09 01:27:57;;;;;;;30.33;25.15;;;;;;;;;;5096201;28;20027;-65
2024/01/09 01:30:22;;;;;;;32.33;27.40;;;;;;;;;;5098332;28;20397;-66
2024/01/09 01:32:48;;;;;;;38.50;32.22;;;;;;;;;;5096694;28;20030;-66
2024/01/09 01:35:13;;;;;;;31.63;28.33;;;;;;;;;;5097258;28;20035;-65
2024/01/09 01:37:39;;;;;;;29.50;26.58;;;;;;;;;;5096759;28;20038;-64
2024/01/09 01:40:04;;;;;;;29.90;26.90;;;;;;;;;;5095796;28;20028;-66
2024/01/09 01:42:29;;;;;;;31.27;28.05;;;;;;;;;;5095961;28;20451;-66
2024/01/09 01:44:55;;;;;;;26.50;23.90;;;;;;;;;;5059277;28;20127;-66
2024/01/09 01:47:20;;;;;;;31.17;28.13;;;;;;;;;;5096581;28;20024;-66
2024/01/09 01:49:46;;;;;;;34.47;31.05;;;;;;;;;;5098651;28;20023;-65
2024/01/09 01:52:11;;;;;;;42.13;37.78;;;;;;;;;;5077697;28;20745;-65
2024/01/09 01:54:37;;;;;;;38.83;34.80;;;;;;;;;;5096115;28;20032;-64
2024/01/09 01:57:04;;;;;;;37.85;33.92;;;;;;;;;;5098659;28;20387;-63
2024/01/09 01:59:30;;;;;;;34.97;31.33;;;;;;;;;;5093954;28;20024;-66
2024/01/09 02:01:56;;;;;;;31.98;28.88;;;;;;;;;;5095572;28;20028;-68
2024/01/09 02:04:21;;;;;;;27.08;24.48;;;;;;;;;;5095958;28;20028;-66
2024/01/09 02:06:47;;;;;;;31.52;28.05;;;;;;;;;;5091496;28;20740;-65
2024/01/09 02:09:13;;;;;;;32.50;29.15;;;;;;;;;;5086742;28;20444;-64
2024/01/09 02:11:38;;;;;;;29.48;26.58;;;;;;;;;;5094366;28;20034;-65
2024/01/09 02:14:03;;;;;;;29.05;26.23;;;;;;;;;;5093388;28;20028;-64
2024/01/09 02:16:29;;;;;;;30.10;27.30;;;;;;;;;;5067055;28;20140;-66
2024/01/09 02:18:54;;;;;;;27.38;24.58;;;;;;;;;;5063864;28;20034;-66
2024/01/09 02:21:19;;;;;;;31.33;28.23;;;;;;;;;;5091616;28;20489;-66
2024/01/09 02:23:45;;;;;;;29.88;26.92;;;;;;;;;;5099435;28;20098;-66
2024/01/09 02:26:11;;;;;;;35.53;31.88;;;;;;;;;;5084917;28;20032;-65
2024/01/09 02:28:44;;;;;;;35.10;31.60;;;;;;;;;;5099211;28;20093;-63
2024/01/09 02:31:10;;;;;;;36.50;32.95;;;;;;;;;;5082837;28;20491;-66
2024/01/09 02:33:35;;;;;;;37.63;33.83;;;;;;;;;;5100884;28;20151;-65
2024/01/09 02:36:00;;;;;;;34.55;31.05;;;;;;;;;;5086293;28;20031;-66
2024/01/09 02:38:26;;;;;;;35.90;32.20;;;;;;;;;;5068713;28;20391;-65
2024/01/09 02:40:51;;;;;;;34.30;30.90;;;;;;;;;;5094599;28;20430;-65
2024/01/09 02:43:17;;;;;;;32.03;28.73;;;;;;;;;;5094501;28;20023;-64
2024/01/09 02:45:42;;;;;;;31.50;28.40;;;;;;;;;;5089283;28;20358;-66
2024/01/09 02:48:07;;;;;;;32.67;29.15;;;;;;;;;;5064464;28;20114;-64
2024/01/09 02:50:33;;;;;;;31.73;28.60;;;;;;;;;;5100105;28;20071;-64
2024/01/09 02:52:58;;;;;;;31.48;28.23;;;;;;;;;;5098080;28;20078;-63
2024/01/09 02:55:23;;;;;;;33.28;29.98;;;;;;;;;;5098779;28;20036;-66
2024/01/09 02:57:49;;;;;;;32.42;29.17;;;;;;;;;;5100183;28;20019;-65
2024/01/09 03:00:14;;;;;;;32.90;29.40;;;;;;;;;;5100045;28;20032;-65
2024/01/09 03:02:40;;;;;;;30.88;27.73;;;;;;;;;;5100835;28;20038;-66
2024/01/09 03:05:06;;;;;;;31.77;28.52;;;;;;;;;;5100062;28;20027;-67
2024/01/09 03:07:32;;;;;;;27.63;24.73;;;;;;;;;;5100427;28;20030;-64
2024/01/09 03:09:57;;;;;;;24.00;21.50;;;;;;;;;;5089373;28;20043;-67
2024/01/09 03:12:23;;;;;;;22.08;19.88;;;;;;;;;;5092931;28;20024;-65
2024/01/09 03:14:48;;;;;;;21.88;19.77;;;;;;;;;;5099249;28;20020;-67
2024/01/09 03:17:13;;;;;;;23.33;21.15;;;;;;;;;;5091386;28;20080;-66
2024/01/09 03:19:40;;;;;;;30.50;27.55;;;;;;;;;;5091275;28;20047;-65
2024/01/09 03:22:05;;;;;;;23.48;21.15;;;;;;;;;;5083513;28;20100;-64
2024/01/09 03:24:31;;;;;;;22.35;20.15;;;;;;;;;;5098327;28;20361;-65
2024/01/09 03:26:56;;;;;;;19.95;17.85;;;;;;;;;;5099102;28;20048;-66
2024/01/09 03:29:21;;;;;;;20.77;18.85;;;;;;;;;;5098036;28;20434;-66
2024/01/09 03:31:47;;;;;;;20.55;18.55;;;;;;;;;;5099848;28;20043;-66
2024/01/09 03:34:12;;;;;;;19.33;17.52;;;;;;;;;;5099963;28;20031;-66
2024/01/09 03:36:38;;;;;;;18.98;17.17;;;;;;;;;;5100054;28;20446;-68
2024/01/09 03:39:04;;;;;;;15.38;13.95;;;;;;;;;;5084550;28;20053;-67
2024/01/09 03:41:30;;;;;;;15.13;13.63;;;;;;;;;;5080491;28;20046;-64
2024/01/09 03:43:55;;;;;;;15.18;13.68;;;;;;;;;;5090181;28;20047;-63
2024/01/09 03:46:20;;;;;;;15.68;14.18;;;;;;;;;;5095352;28;20062;-64
2024/01/09 03:48:46;;;;;;;14.10;12.80;;;;;;;;;;5097169;28;20028;-64
2024/01/09 03:51:11;;;;;;;15.05;13.65;;;;;;;;;;5095643;28;20031;-63
2024/01/09 03:53:36;;;;;;;15.20;13.70;;;;;;;;;;5086886;28;20324;-65
2024/01/09 03:56:02;;;;;;;16.23;14.55;;;;;;;;;;5099757;28;20032;-66
2024/01/09 03:58:28;;;;;;;16.27;14.77;;;;;;;;;;5097806;28;20072;-65
2024/01/09 04:00:53;;;;;;;16.13;14.43;;;;;;;;;;5097588;28;20164;-66
2024/01/09 04:03:18;;;;;;;15.30;13.93;;;;;;;;;;5098433;28;20104;-67
2024/01/09 04:05:44;;;;;;;16.38;14.73;;;;;;;;;;5091019;28;20101;-64
2024/01/09 04:08:09;;;;;;;16.75;15.15;;;;;;;;;;5085813;28;20035;-64
2024/01/09 04:10:35;;;;;;;17.77;16.05;;;;;;;;;;5097117;28;20063;-64
2024/01/09 04:13:01;;;;;;;18.83;17.05;;;;;;;;;;5097346;28;20054;-66
2024/01/09 04:15:26;;;;;;;19.23;17.33;;;;;;;;;;5097014;28;20068;-65
2024/01/09 04:17:51;;;;;;;17.27;15.60;;;;;;;;;;5070006;28;20403;-67
2024/01/09 04:20:17;;;;;;;14.52;13.13;;;;;;;;;;5078534;28;20469;-64
2024/01/09 04:22:42;;;;;;;16.75;15.15;;;;;;;;;;5099343;28;20366;-65
2024/01/09 04:25:08;;;;;;;15.60;14.20;;;;;;;;;;5092218;28;20530;-63
2024/01/09 04:27:33;;;;;;;14.48;13.15;;;;;;;;;;5090051;28;20028;-65
2024/01/09 04:29:58;;;;;;;13.95;12.65;;;;;;;;;;5098462;28;20035;-65
2024/01/09 04:32:24;;;;;;;12.85;11.65;;;;;;;;;;5098393;28;20020;-64
2024/01/09 04:34:50;;;;;;;14.18;12.75;;;;;;;;;;5094066;28;20034;-65
2024/01/09 04:37:15;;;;;;;13.70;12.32;;;;;;;;;;5088339;28;20098;-66
2024/01/09 04:39:41;;;;;;;14.32;13.02;;;;;;;;;;5099530;28;20176;-65
2024/01/09 04:42:06;;;;;;;12.93;11.73;;;;;;;;;;5097566;28;20028;-68
2024/01/09 04:44:32;;;;;;;16.15;14.55;;;;;;;;;;5097505;28;20318;-66
2024/01/09 04:46:57;;;;;;;14.65;13.23;;;;;;;;;;5069929;28;20088;-65
2024/01/09 04:49:23;;;;;;;13.55;12.25;;;;;;;;;;5081809;28;20016;-65
2024/01/09 04:51:49;;;;;;;12.77;11.52;;;;;;;;;;5079267;28;20027;-65
2024/01/09 04:54:14;;;;;;;11.88;10.75;;;;;;;;;;5085293;28;20276;-64
2024/01/09 04:56:40;;;;;;;10.43;9.43;;;;;;;;;;5096935;28;20361;-67
2024/01/09 04:59:05;;;;;;;10.23;9.30;;;;;;;;;;5099803;28;20392;-65
2024/01/09 05:01:30;;;;;;;10.38;9.48;;;;;;;;;;5081796;28;20063;-66
2024/01/09 05:03:55;;;;;;;11.55;10.45;;;;;;;;;;5089512;28;20050;-66
2024/01/09 05:06:21;;;;;;;10.80;9.77;;;;;;;;;;5094914;28;20031;-66
2024/01/09 05:08:47;;;;;;;10.48;9.30;;;;;;;;;;5089775;28;20019;-65
2024/01/09 05:11:12;;;;;;;27.50;24.75;;;;;;;;;;5093071;28;20435;-64
2024/01/09 05:13:37;;;;;;;84.10;63.25;;;;;;;;;;5098546;28;20019;-63
2024/01/09 05:16:04;;;;;;;26.13;20.02;;;;;;;;;;5084187;28;20035;-64
2024/01/09 05:18:29;;;;;;;63.75;48.58;;;;;;;;;;5083679;28;20375;-66
2024/01/09 05:20:54;;;;;;;37.47;29.50;;;;;;;;;;5097614;28;20028;-66
2024/01/09 05:23:20;;;;;;;19.55;17.52;;;;;;;;;;5098152;28;20062;-67
2024/01/09 05:25:45;;;;;;;56.55;47.45;;;;;;;;;;5096172;28;20038;-67
2024/01/09 05:28:10;;;;;;;15.75;14.25;;;;;;;;;;5095814;28;20115;-68
2024/01/09 05:30:37;;;;;;;12.02;10.98;;;;;;;;;;5095670;28;20362;-65
2024/01/09 05:33:02;;;;;;;13.50;12.25;;;;;;;;;;5096480;28;20032;-66
2024/01/09 05:35:28;;;;;;;13.25;12.10;;;;;;;;;;5098683;28;20096;-67
2024/01/09 05:37:53;;;;;;;12.55;11.40;;;;;;;;;;5079481;28;20093;-68
2024/01/09 05:40:19;;;;;;;13.88;12.57;;;;;;;;;;5086717;28;20301;-66
2024/01/09 05:42:44;;;;;;;22.67;20.38;;;;;;;;;;5088628;28;20337;-66
2024/01/09 05:45:10;;;;;;;35.40;31.58;;;;;;;;;;5078234;28;20066;-67
2024/01/09 05:47:35;;;;;;;27.55;24.77;;;;;;;;;;5095881;28;20418;-65
2024/01/09 05:50:01;;;;;;;42.45;37.70;;;;;;;;;;5096599;28;20027;-64
2024/01/09 05:52:27;;;;;;;62.97;54.22;;;;;;;;;;5095646;28;20038;-64
2024/01/09 05:54:52;;;;;;;28.95;25.85;;;;;;;;;;5096411;28;20016;-64
2024/01/09 05:57:17;;;;;;;22.13;19.90;;;;;;;;;;5099421;28;20412;-66
2024/01/09 05:59:43;;;;;;;17.13;15.48;;;;;;;;;;5095107;28;20443;-65
2024/01/09 06:02:08;;;;;;;20.38;18.45;;;;;;;;;;5070818;28;20031;-68
2024/01/09 06:04:33;;;;;;;26.90;24.17;;;;;;;;;;5088230;28;20023;-68
2024/01/09 06:06:59;;;;;;;18.90;17.00;;;;;;;;;;5093096;28;20106;-70
2024/01/09 06:09:24;;;;;;;23.20;20.88;;;;;;;;;;5090586;28;20028;-66
2024/01/09 06:11:49;;;;;;;25.17;22.73;;;;;;;;;;5089842;28;20029;-68
2024/01/09 06:14:15;;;;;;;19.83;17.88;;;;;;;;;;5088316;28;20115;-65
2024/01/09 06:16:40;;;;;;;30.95;27.75;;;;;;;;;;5087148;28;20119;-66
2024/01/09 06:19:06;;;;;;;40.67;35.53;;;;;;;;;;5084982;28;20108;-64
2024/01/09 06:21:31;;;;;;;62.20;55.40;;;;;;;;;;5088752;28;20028;-65
2024/01/09 06:23:56;;;;;;;49.45;41.45;;;;;;;;;;5087415;28;20031;-65
2024/01/09 06:26:22;;;;;;;39.65;32.33;;;;;;;;;;5088485;28;20111;-65
2024/01/09 06:28:47;;;;;;;33.33;29.73;;;;;;;;;;5086680;28;20093;-69
2024/01/09 06:31:13;;;;;;;26.10;23.45;;;;;;;;;;5087007;28;20020;-66
2024/01/09 06:33:38;;;;;;;39.97;34.60;;;;;;;;;;5086253;28;20042;-67
2024/01/09 06:36:03;;;;;;;34.70;30.10;;;;;;;;;;5086230;28;20152;-69
2024/01/09 06:38:29;;;;;;;26.83;24.08;;;;;;;;;;5086330;28;20035;-64
2024/01/09 06:40:54;;;;;;;48.45;41.28;;;;;;;;;;5086781;28;20028;-66
2024/01/09 06:43:19;;;;;;;33.10;28.92;;;;;;;;;;5085791;28;20062;-67
2024/01/09 06:45:45;;;;;;;140.40;102.35;;;;;;;;;;5087747;28;20098;-65
2024/01/09 06:48:10;;;;;;;69.90;50.83;;;;;;;;;;5085471;28;20431;-67
2024/01/09 06:50:35;;;;;;;37.42;31.00;;;;;;;;;;5083878;28;20437;-66
2024/01/09 06:53:01;;;;;;;104.75;65.60;;;;;;;;;;5087712;28;20431;-66
2024/01/09 06:55:26;;;;;;;57.47;45.20;;;;;;;;;;5087886;28;20094;-71
2024/01/09 06:57:52;;;;;;;70.85;58.90;;;;;;;;;;5087880;28;20024;-71
2024/01/09 07:00:18;;;;;;;43.05;38.38;;;;;;;;;;5083310;28;20031;-70
2024/01/09 07:02:44;;;;;;;27.92;24.92;;;;;;;;;;5085482;28;20088;-70
2024/01/09 07:05:10;;;;;;;42.60;36.60;;;;;;;;;;5085966;28;20426;-70
2024/01/09 07:07:35;;;;;;;32.40;28.63;;;;;;;;;;5086880;28;20359;-70
2024/01/09 07:10:00;;;;;;;29.73;26.52;;;;;;;;;;5086337;28;20093;-71
2024/01/09 07:12:27;;;;;;;30.15;26.15;;;;;;;;;;5085581;28;20446;-70
2024/01/09 07:14:53;;;;;;;55.45;42.05;;;;;;;;;;5086535;28;20031;-71
2024/01/09 07:17:18;;;;;;;44.17;35.53;;;;;;;;;;5089040;28;20032;-69
2024/01/09 07:19:43;;;;;;;43.88;34.75;;;;;;;;;;5087093;28;20469;-70
2024/01/09 07:22:09;;;;;;;116.93;81.32;;;;;;;;;;5085835;28;20024;-68
2024/01/09 07:24:34;;;;;;;44.13;35.08;;;;;;;;;;5084961;28;20032;-68
2024/01/09 07:26:59;;;;;;;68.32;50.85;;;;;;;;;;5087339;28;20031;-72
2024/01/09 07:29:25;;;;;;;41.40;34.42;;;;;;;;;;5086519;28;20474;-73
2024/01/09 07:31:50;;;;;;;49.95;40.22;;;;;;;;;;5085403;28;20035;-73
2024/01/09 07:34:15;;;;;;;43.50;36.90;;;;;;;;;;5086168;28;20066;-71
2024/01/09 07:36:42;;;;;;;49.50;41.25;;;;;;;;;;5082332;28;20164;-71
2024/01/09 07:39:09;;;;;;;45.10;39.55;;;;;;;;;;5085604;28;20123;-70
2024/01/09 07:41:35;;;;;;;68.22;57.17;;;;;;;;;;5086500;28;20447;-73
2024/01/09 07:44:01;;;;;;;50.80;41.47;;;;;;;;;;5085396;28;20063;-71
2024/01/09 07:46:26;;;;;;;54.60;46.85;;;;;;;;;;5086742;28;20063;-71
2024/01/09 07:48:51;;;;;;;61.35;49.10;;;;;;;;;;5085068;28;20110;-72
2024/01/09 07:51:17;;;;;;;47.53;40.08;;;;;;;;;;5084620;28;20031;-69
2024/01/09 07:53:42;;;;;;;39.85;34.92;;;;;;;;;;5085186;28;20029;-70
2024/01/09 07:56:14;;;;;;;43.08;37.40;;;;;;;;;;5085753;28;20024;-66
2024/01/09 07:58:39;;;;;;;48.80;41.08;;;;;;;;;;5085742;28;20047;-72
2024/01/09 08:01:05;;;;;;;57.85;47.80;;;;;;;;;;5083973;28;20078;-73
2024/01/09 08:03:30;;;;;;;55.88;46.22;;;;;;;;;;5086689;28;20022;-72
2024/01/09 08:05:55;;;;;;;35.10;29.10;;;;;;;;;;5089651;28;20028;-73
2024/01/09 08:08:21;;;;;;;41.05;35.67;;;;;;;;;;5084285;28;20027;-72
2024/01/09 08:10:46;;;;;;;45.83;37.80;;;;;;;;;;5084399;28;20091;-72
2024/01/09 08:13:11;;;;;;;40.58;34.75;;;;;;;;;;5087522;28;20146;-68
2024/01/09 08:15:37;;;;;;;44.38;38.03;;;;;;;;;;5084641;28;20028;-70
2024/01/09 08:18:02;;;;;;;37.58;33.33;;;;;;;;;;5082213;28;20016;-71
2024/01/09 08:20:28;;;;;;;40.03;34.30;;;;;;;;;;5088205;28;20085;-70
2024/01/09 08:22:54;;;;;;;40.45;35.65;;;;;;;;;;5085228;28;20431;-71
2024/01/09 08:25:19;;;;;;;38.58;33.55;;;;;;;;;;5084699;28;20036;-70
2024/01/09 08:27:44;;;;;;;48.17;39.38;;;;;;;;;;5086562;28;20100;-71
2024/01/09 08:30:10;;;;;;;33.42;29.80;;;;;;;;;;5085405;28;20049;-71
2024/01/09 08:32:37;;;;;;;60.45;50.25;;;;;;;;;;5085280;28;20103;-71
2024/01/09 08:35:02;;;;;;;41.88;37.28;;;;;;;;;;5084699;28;20054;-69
2024/01/09 08:37:28;;;;;;;48.13;42.08;;;;;;;;;;5082924;28;20024;-68
2024/01/09 08:39:53;;;;;;;37.03;29.88;;;;;;;;;;5083873;28;20397;-70
2024/01/09 08:42:19;;;;;;;32.92;28.55;;;;;;;;;;5079656;28;20435;-72
2024/01/09 08:44:44;;;;;;;32.30;28.08;;;;;;;;;;5084583;28;20024;-72
2024/01/09 08:47:10;;;;;;;37.35;33.08;;;;;;;;;;5082700;28;20024;-73
2024/01/09 08:49:36;;;;;;;34.65;30.52;;;;;;;;;;5085695;28;20056;-72
2024/01/09 08:52:01;;;;;;;34.55;30.77;;;;;;;;;;5084170;28;20028;-72
2024/01/09 08:54:26;;;;;;;40.22;35.75;;;;;;;;;;5085178;28;20085;-68
2024/01/09 08:56:52;;;;;;;41.25;36.15;;;;;;;;;;5083229;28;20038;-71
2024/01/09 08:59:17;;;;;;;58.38;50.22;;;;;;;;;;5084910;28;20036;-71
2024/01/09 09:01:43;;;;;;;34.95;30.95;;;;;;;;;;5086569;28;20439;-71
2024/01/09 09:04:08;;;;;;;46.25;39.33;;;;;;;;;;5082695;28;20024;-72
2024/01/09 09:06:34;;;;;;;49.53;41.58;;;;;;;;;;5082154;28;20328;-72
2024/01/09 09:08:59;;;;;;;85.70;65.97;;;;;;;;;;5082064;28;20336;-67
2024/01/09 09:11:25;;;;;;;51.35;42.67;;;;;;;;;;5084284;28;20472;-69
2024/01/09 09:13:50;;;;;;;52.10;41.95;;;;;;;;;;5084174;28;20030;-73
2024/01/09 09:16:16;;;;;;;62.67;51.70;;;;;;;;;;5084727;28;20393;-69
2024/01/09 09:18:42;;;;;;;63.00;52.53;;;;;;;;;;5086881;28;20058;-72
2024/01/09 09:21:07;;;;;;;46.83;40.08;;;;;;;;;;5084686;28;20122;-71
2024/01/09 09:23:33;;;;;;;45.75;39.45;;;;;;;;;;5085030;28;20514;-72
2024/01/09 09:25:58;;;;;;;54.33;46.13;;;;;;;;;;5084756;28;20024;-72
2024/01/09 09:28:24;;;;;;;54.08;44.10;;;;;;;;;;5088459;28;20037;-70
2024/01/09 09:30:49;;;;;;;51.25;43.03;;;;;;;;;;5085362;28;20038;-69
2024/01/09 09:33:15;;;;;;;39.88;33.65;;;;;;;;;;5079416;28;20034;-70
2024/01/09 09:35:40;;;;;;;63.00;50.35;;;;;;;;;;5086914;28;20115;-74
2024/01/09 09:38:06;;;;;;;46.40;38.83;;;;;;;;;;5077779;28;20039;-70
2024/01/09 09:40:31;;;;;;;47.42;41.60;;;;;;;;;;5088654;28;20028;-71
2024/01/09 09:43:00;;;;;;;56.38;43.53;;;;;;;;;;5085424;28;20020;-71
2024/01/09 09:45:25;;;;;;;42.88;36.90;;;;;;;;;;5078018;28;20074;-69
2024/01/09 09:47:53;;;;;;;43.53;38.63;;;;;;;;;;5086546;28;20051;-70
2024/01/09 09:50:19;;;;;;;46.03;39.75;;;;;;;;;;5089158;28;20023;-73
2024/01/09 09:52:44;;;;;;;39.83;32.72;;;;;;;;;;5097744;28;20461;-72
2024/01/09 09:55:10;;;;;;;55.90;46.80;;;;;;;;;;5097222;28;20018;-68
2024/01/09 09:57:35;;;;;;;51.78;43.80;;;;;;;;;;5081392;28;20070;-70
2024/01/09 10:00:00;;;;;;;42.30;37.10;;;;;;;;;;5092778;28;20028;-70
2024/01/09 10:02:28;;;;;;;42.67;34.97;;;;;;;;;;5096663;28;20155;-71
2024/01/09 10:04:56;;;;;;;40.95;36.20;;;;;;;;;;5089958;28;20028;-74
2024/01/09 10:07:21;;;;;;;36.80;29.92;;;;;;;;;;5078044;28;20515;-70
2024/01/09 10:09:49;;;;;;;36.83;32.20;;;;;;;;;;5075677;28;20040;-74
2024/01/09 10:12:15;;;;;;;34.35;29.77;;;;;;;;;;5090983;28;20115;-68
2024/01/09 10:14:59;;;;;;;29.50;25.15;;;;;;;;;;5078528;28;20950;-71
2024/01/09 10:17:25;;;;;;;29.88;25.27;;;;;;;;;;5096272;28;20036;-71
2024/01/09 10:19:50;;;;;;;30.50;27.20;;;;;;;;;;5097731;28;20042;-72
2024/01/09 10:22:15;;;;;;;41.15;34.47;;;;;;;;;;5086613;28;20024;-73
2024/01/09 10:24:41;;;;;;;48.40;36.63;;;;;;;;;;5090506;28;20126;-74
2024/01/09 10:27:08;;;;;;;50.17;38.47;;;;;;;;;;5094242;28;20058;-74
2024/01/09 10:29:33;;;;;;;34.25;29.05;;;;;;;;;;5097144;28;20051;-73
2024/01/09 10:31:58;;;;;;;43.35;34.72;;;;;;;;;;5096897;28;20461;-73
2024/01/09 10:34:26;;;;;;;42.92;35.72;;;;;;;;;;5085311;28;20035;-71
2024/01/09 10:36:53;;;;;;;41.30;33.72;;;;;;;;;;5079160;28;20084;-77
2024/01/09 10:39:18;;;;;;;36.22;30.80;;;;;;;;;;5077108;28;20032;-68
2024/01/09 10:41:43;;;;;;;39.08;33.72;;;;;;;;;;5077931;28;20035;-69
2024/01/09 10:44:13;;;;;;;33.08;29.48;;;;;;;;;;5078839;28;20046;-71
2024/01/09 10:46:38;;;;;;;;;;;;;;;;;;5079295;28;20029;-68
2024/01/09 10:49:06;;;;;;;32.57;28.70;;;;;;;;;;5081574;28;19912;-70
2024/01/09 10:51:31;;;;;;;41.70;33.13;;;;;;;;;;5061208;28;20081;-73
2024/01/09 10:53:57;;;;;;;40.15;34.08;;;;;;;;;;5081794;28;20035;-73
2024/01/09 10:56:22;;;;;;;46.72;37.75;;;;;;;;;;5079416;28;20516;-71
2024/01/09 10:58:49;;;;;;;37.05;29.02;;;;;;;;;;5082118;28;20030;-74
2024/01/09 11:01:14;;;;;;;36.80;32.78;;;;;;;;;;5062024;28;20628;-71
2024/01/09 11:03:40;;;;;;;42.65;36.00;;;;;;;;;;5082444;28;20035;-68
2024/01/09 11:06:07;;;;;;;58.65;46.20;;;;;;;;;;5081650;28;20458;-71
2024/01/09 11:08:35;;;;;;;44.47;35.80;;;;;;;;;;5096699;28;20110;-71
2024/01/09 11:11:06;;;;;;;55.90;42.95;;;;;;;;;;5099661;28;20044;-67
2024/01/09 11:13:33;;;;;;;41.53;33.60;;;;;;;;;;5099837;28;20443;-68
2024/01/09 11:15:59;;;;;;;66.50;50.88;;;;;;;;;;5097054;28;20027;-70
2024/01/09 11:18:27;;;;;;;51.10;39.80;;;;;;;;;;5080206;28;20043;-67
2024/01/09 11:21:02;;;;;;;45.80;36.53;;;;;;;;;;5100116;28;20027;-69
2024/01/09 11:24:00;;;;;;;40.08;33.88;;;;;;;;;;5098009;28;20375;-67
2024/01/09 11:26:31;;;;;;;58.63;47.72;;;;;;;;;;4989862;28;20474;-74
2024/01/09 11:28:58;;;;;;;58.38;44.33;;;;;;;;;;4982722;28;20033;-70
2024/01/09 11:31:24;;;;;;;44.78;36.30;;;;;;;;;;4989281;28;20254;-70
2024/01/09 11:33:51;;;;;;;41.35;34.80;;;;;;;;;;4989685;28;20176;-68
2024/01/09 11:36:29;;;;;;;48.45;37.05;;;;;;;;;;4986323;28;21050;-71
2024/01/09 11:38:55;;;;;;;57.53;42.35;;;;;;;;;;4980663;28;20160;-72
2024/01/09 11:41:24;;;;;;;39.75;31.15;;;;;;;;;;4983829;28;20033;-69
2024/01/09 11:43:59;;;;;;;44.65;35.60;;;;;;;;;;4982083;28;20038;-71
2024/01/09 11:46:24;;;;;;;43.22;33.05;;;;;;;;;;4987421;28;20057;-71
2024/01/09 11:48:50;;;;;;;52.90;39.38;;;;;;;;;;4989386;28;20686;-70
2024/01/09 11:51:16;;;;;;;47.38;37.47;;;;;;;;;;4989550;28;20033;-65
2024/01/09 11:53:41;;;;;;;48.63;37.10;;;;;;;;;;4990058;28;20401;-67
2024/01/09 11:56:12;;;;;;;35.92;30.55;;;;;;;;;;4990758;28;20469;-68
2024/01/09 11:58:37;;;;;;;33.47;29.45;;;;;;;;;;4979966;28;20339;-65
2024/01/09 12:01:03;;;;;;;37.78;30.25;;;;;;;;;;4989319;28;20065;-66
2024/01/09 12:03:29;;;;;;;32.65;26.13;;;;;;;;;;5063704;28;20046;-65
2024/01/09 12:05:55;;;;;;;30.50;25.20;;;;;;;;;;5095608;28;20455;-66
2024/01/09 12:08:20;;;;;;;30.48;25.17;;;;;;;;;;5085416;28;20155;-69
2024/01/09 12:10:47;;;;;;;41.70;33.45;;;;;;;;;;5082529;28;20202;-68
2024/01/09 12:13:16;;;;;;;31.77;25.83;;;;;;;;;;5077276;28;20066;-66
2024/01/09 12:15:41;;;;;;;28.13;24.45;;;;;;;;;;5080392;28;20028;-65
2024/01/09 12:18:06;;;;;;;25.25;22.48;;;;;;;;;;5078188;28;20057;-65
2024/01/09 12:20:32;;;;;;;23.60;21.10;;;;;;;;;;5077923;28;20016;-65
2024/01/09 12:22:57;;;;;;;38.25;31.30;;;;;;;;;;5078194;28;20089;-65
2024/01/09 12:25:23;;;;;;;27.27;23.88;;;;;;;;;;5074462;28;20042;-66
2024/01/09 12:27:49;;;;;;;27.15;23.65;;;;;;;;;;5079468;28;20414;-64
2024/01/09 12:30:14;;;;;;;26.20;22.05;;;;;;;;;;5084736;28;20833;-68
2024/01/09 12:32:40;;;;;;;35.03;29.23;;;;;;;;;;5088375;28;20032;-67
2024/01/09 12:35:06;;;;;;;34.20;29.08;;;;;;;;;;5081185;28;20095;-67
2024/01/09 12:37:32;;;;;;;33.53;28.02;;;;;;;;;;5077894;28;20039;-67
2024/01/09 12:39:59;;;;;;;67.93;45.83;;;;;;;;;;5079326;28;20112;-66
2024/01/09 12:42:24;;;;;;;63.08;45.22;;;;;;;;;;5089118;27;20032;-66
2024/01/09 12:44:50;;;;;;;61.85;40.45;;;;;;;;;;5096979;28;20409;-68
2024/01/09 12:47:15;;;;;;;26.77;20.83;;;;;;;;;;5096142;28;20047;-68
2024/01/09 12:49:44;;;;;;;64.07;44.95;;;;;;;;;;5095951;28;20114;-67
2024/01/09 12:52:10;;;;;;;40.53;31.33;;;;;;;;;;5092381;28;20038;-67
2024/01/09 12:54:36;;;;;;;68.15;46.72;;;;;;;;;;5095673;28;20038;-70
2024/01/09 12:57:01;;;;;;;148.27;99.65;;;;;;;;;;5097317;28;20031;-68
2024/01/09 12:59:26;;;;;;;65.72;48.88;;;;;;;;;;5096598;28;20028;-69
2024/01/09 13:01:54;;;;;;;37.65;30.42;;;;;;;;;;5096210;28;20035;-70
2024/01/09 13:04:21;;;;;;;35.90;29.50;;;;;;;;;;5094575;28;20055;-69
2024/01/09 13:06:47;;;;;;;48.72;38.75;;;;;;;;;;5097564;28;20143;-69
2024/01/09 13:09:12;;;;;;;34.30;27.83;;;;;;;;;;5096004;28;20031;-67
2024/01/09 13:11:42;;;;;;;23.55;19.98;;;;;;;;;;5095816;28;20031;-67
2024/01/09 13:14:07;;;;;;;27.73;23.35;;;;;;;;;;5095546;28;20042;-68
2024/01/09 13:16:33;;;;;;;33.15;27.90;;;;;;;;;;5096291;28;20036;-69
2024/01/09 13:18:58;;;;;;;26.55;23.17;;;;;;;;;;5098189;28;20024;-69
2024/01/09 13:21:23;;;;;;;21.63;19.25;;;;;;;;;;5077371;28;20046;-66
2024/01/09 13:23:50;;;;;;;21.02;18.83;;;;;;;;;;5098637;28;20020;-68
2024/01/09 13:26:15;;;;;;;21.70;19.08;;;;;;;;;;5096350;28;20039;-69
2024/01/09 13:28:41;;;;;;;23.75;19.15;;;;;;;;;;5094857;28;20032;-68
2024/01/09 13:31:10;;;;;;;23.02;19.75;;;;;;;;;;5096239;28;20027;-70
2024/01/09 13:33:36;;;;;;;17.30;15.25;;;;;;;;;;5096349;28;20039;-71
2024/01/09 13:36:02;;;;;;;19.10;16.90;;;;;;;;;;5096832;28;20036;-68
2024/01/09 13:38:27;;;;;;;15.57;13.90;;;;;;;;;;5097112;28;20040;-68
2024/01/09 13:40:53;;;;;;;21.48;18.13;;;;;;;;;;5095093;28;20092;-68
2024/01/09 13:43:19;;;;;;;15.38;13.82;;;;;;;;;;5075848;28;20035;-71
2024/01/09 13:45:45;;;;;;;14.77;13.23;;;;;;;;;;5076583;28;20036;-68
2024/01/09 13:48:12;;;;;;;13.70;12.20;;;;;;;;;;5080368;28;20028;-68
2024/01/09 13:50:37;;;;;;;26.23;22.25;;;;;;;;;;5074108;28;20103;-68
2024/01/09 13:53:02;;;;;;;16.15;14.35;;;;;;;;;;5094680;28;20376;-70
2024/01/09 13:55:28;;;;;;;22.25;19.38;;;;;;;;;;5095352;28;20616;-67
2024/01/09 13:57:53;;;;;;;25.25;20.70;;;;;;;;;;5083705;28;20037;-67
2024/01/09 14:00:19;;;;;;;11.57;10.40;;;;;;;;;;5058579;28;20027;-66
2024/01/09 14:02:44;;;;;;;12.77;11.43;;;;;;;;;;5095485;28;20057;-65
2024/01/09 14:05:10;;;;;;;12.98;11.63;;;;;;;;;;5086284;28;20042;-69
2024/01/09 14:07:38;;;;;;;20.55;17.20;;;;;;;;;;5076416;28;20457;-68
2024/01/09 14:10:06;;;;;;;14.02;12.55;;;;;;;;;;5075712;28;20377;-66